PGT651 LTFJ-GMMN
Flight info
| Callsign | PGT651 |
|---|---|
| Flight time | N/A |
| Altitude | 36000 |
| Route | BARPE UG12 GOLDO DCT SUTIS DCT PINDO DCT TIRCA DCT GOKEL DCT ENSOT DCT GOKMI DCT SUPUX DCT KUPIM DCT SUXER DCT RIPAL DCT MORSS DCT MHN DCT CDP DCT LULAK DCT EDULI DCT OKITI DCT IBEBA DCT BAVER DCT GERVU DCT ALT DCT RESTU DCT GALTO UB11 TUSOR |
| Aircraft | A20N/M-SDE2E3FGHIRWXY/LB1 |
Departure
| Time | 2026-05-06 11:41 |
|---|---|
| Airport | Istanbul Sabiha Gökçen International Airport (LTFJ) |
Arrival
| Time | N/A |
|---|---|
| Airport | Mohammed V International Airport (GMMN) |
| Time | Latitude | Longitude | Altitude | Speed | Heading |
|---|---|---|---|---|---|
| 2026-05-06 10:59 | 40.90607 | 29.31632 | 320 ft | 0 kts | 334° |
| 2026-05-06 11:27 | 40.90596 | 29.31639 | 319 ft | 4 kts | 334° |
| 2026-05-06 11:27 | 40.90572 | 29.31653 | 318 ft | 4 kts | 341° |
| 2026-05-06 11:28 | 40.90547 | 29.31661 | 319 ft | 4 kts | 7° |
| 2026-05-06 11:28 | 40.90528 | 29.31649 | 319 ft | 1 kts | 63° |
| 2026-05-06 11:28 | 40.90527 | 29.31648 | 319 ft | 0 kts | 64° |
| 2026-05-06 11:30 | 40.90529 | 29.31652 | 320 ft | 1 kts | 64° |
| 2026-05-06 11:31 | 40.90536 | 29.31672 | 318 ft | 3 kts | 64° |
| 2026-05-06 11:31 | 40.90550 | 29.31709 | 320 ft | 6 kts | 64° |
| 2026-05-06 11:31 | 40.90571 | 29.31765 | 319 ft | 8 kts | 64° |
| 2026-05-06 11:31 | 40.90599 | 29.31839 | 320 ft | 10 kts | 64° |
| 2026-05-06 11:32 | 40.90603 | 29.31918 | 319 ft | 9 kts | 136° |
| 2026-05-06 11:32 | 40.90544 | 29.31963 | 320 ft | 11 kts | 154° |
| 2026-05-06 11:32 | 40.90485 | 29.32025 | 320 ft | 12 kts | 110° |
| 2026-05-06 11:32 | 40.90511 | 29.32131 | 319 ft | 13 kts | 64° |
| 2026-05-06 11:33 | 40.90554 | 29.32249 | 319 ft | 15 kts | 64° |
| 2026-05-06 11:33 | 40.90585 | 29.32390 | 320 ft | 17 kts | 104° |
| 2026-05-06 11:33 | 40.90494 | 29.32478 | 320 ft | 17 kts | 154° |
| 2026-05-06 11:33 | 40.90380 | 29.32552 | 320 ft | 19 kts | 154° |
| 2026-05-06 11:34 | 40.90277 | 29.32554 | 320 ft | 15 kts | 236° |
| 2026-05-06 11:34 | 40.90228 | 29.32432 | 320 ft | 15 kts | 244° |
| 2026-05-06 11:34 | 40.90181 | 29.32305 | 320 ft | 16 kts | 244° |
| 2026-05-06 11:34 | 40.90133 | 29.32172 | 320 ft | 13 kts | 244° |
| 2026-05-06 11:35 | 40.90091 | 29.32068 | 319 ft | 13 kts | 227° |
| 2026-05-06 11:35 | 40.90008 | 29.32079 | 317 ft | 15 kts | 154° |
| 2026-05-06 11:35 | 40.89895 | 29.32152 | 312 ft | 20 kts | 154° |
| 2026-05-06 11:35 | 40.89763 | 29.32238 | 307 ft | 23 kts | 154° |
| 2026-05-06 11:36 | 40.89629 | 29.32324 | 306 ft | 16 kts | 154° |
| 2026-05-06 11:36 | 40.89533 | 29.32359 | 307 ft | 14 kts | 158° |
| 2026-05-06 11:36 | 40.89509 | 29.32465 | 306 ft | 14 kts | 69° |
| 2026-05-06 11:36 | 40.89554 | 29.32591 | 307 ft | 16 kts | 64° |
| 2026-05-06 11:37 | 40.89605 | 29.32730 | 306 ft | 18 kts | 64° |
| 2026-05-06 11:37 | 40.89661 | 29.32883 | 306 ft | 20 kts | 63° |
| 2026-05-06 11:37 | 40.89725 | 29.33054 | 305 ft | 22 kts | 64° |
| 2026-05-06 11:37 | 40.89795 | 29.33244 | 305 ft | 24 kts | 64° |
| 2026-05-06 11:38 | 40.89869 | 29.33446 | 305 ft | 25 kts | 64° |
| 2026-05-06 11:38 | 40.89942 | 29.33644 | 309 ft | 23 kts | 64° |
| 2026-05-06 11:38 | 40.90004 | 29.33815 | 315 ft | 17 kts | 65° |
| 2026-05-06 11:38 | 40.90016 | 29.33890 | 316 ft | 8 kts | 103° |
| 2026-05-06 11:39 | 40.89973 | 29.33939 | 316 ft | 9 kts | 152° |
| 2026-05-06 11:39 | 40.89911 | 29.33979 | 318 ft | 10 kts | 156° |
| 2026-05-06 11:39 | 40.89855 | 29.33970 | 319 ft | 9 kts | 219° |
| 2026-05-06 11:39 | 40.89829 | 29.33912 | 318 ft | 0 kts | 244° |
| 2026-05-06 11:40 | 40.89824 | 29.33899 | 318 ft | 7 kts | 244° |
| 2026-05-06 11:40 | 40.89705 | 29.33574 | 309 ft | 75 kts | 244° |
| 2026-05-06 11:40 | 40.89388 | 29.32710 | 302 ft | 131 kts | 244° |
| 2026-05-06 11:40 | 40.88933 | 29.31468 | 358 ft | 168 kts | 244° |
| 2026-05-06 11:41 | 40.88401 | 29.30076 | 874 ft | 170 kts | 239° |
| 2026-05-06 11:41 | 40.87765 | 29.28739 | 1519 ft | 173 kts | 242° |
| 2026-05-06 11:41 | 40.87234 | 29.27312 | 2185 ft | 175 kts | 247° |
| 2026-05-06 11:41 | 40.86723 | 29.25750 | 2577 ft | 195 kts | 248° |
| 2026-05-06 11:42 | 40.86146 | 29.24025 | 2957 ft | 216 kts | 246° |
| 2026-05-06 11:42 | 40.85485 | 29.22144 | 3317 ft | 236 kts | 246° |
| 2026-05-06 11:42 | 40.84764 | 29.20160 | 3952 ft | 242 kts | 245° |
| 2026-05-06 11:42 | 40.84022 | 29.18157 | 4710 ft | 244 kts | 243° |
| 2026-05-06 11:43 | 40.82916 | 29.16472 | 5383 ft | 252 kts | 215° |
| 2026-05-06 11:43 | 40.81339 | 29.15408 | 6084 ft | 256 kts | 204° |
| 2026-05-06 11:43 | 40.79649 | 29.14550 | 6298 ft | 262 kts | 201° |
| 2026-05-06 11:44 | 40.76089 | 29.12839 | 5982 ft | 280 kts | 206° |
| 2026-05-06 11:44 | 40.74445 | 29.11536 | 5970 ft | 274 kts | 220° |
| 2026-05-06 11:44 | 40.73109 | 29.09744 | 6046 ft | 275 kts | 234° |
| 2026-05-06 11:44 | 40.72052 | 29.07672 | 6554 ft | 276 kts | 241° |
| 2026-05-06 11:45 | 40.71132 | 29.05455 | 6948 ft | 275 kts | 245° |
| 2026-05-06 11:45 | 40.70280 | 29.03169 | 7534 ft | 278 kts | 246° |
| 2026-05-06 11:45 | 40.69448 | 29.00865 | 8382 ft | 279 kts | 247° |
| 2026-05-06 11:45 | 40.68610 | 28.98538 | 9147 ft | 283 kts | 247° |
| 2026-05-06 11:46 | 40.67755 | 28.96182 | 9913 ft | 287 kts | 247° |
| 2026-05-06 11:46 | 40.67041 | 28.93698 | 10365 ft | 298 kts | 260° |
| 2026-05-06 11:46 | 40.66820 | 28.90918 | 10565 ft | 314 kts | 275° |
| 2026-05-06 11:46 | 40.66936 | 28.87950 | 10854 ft | 331 kts | 276° |
| 2026-05-06 11:47 | 40.67047 | 28.84902 | 11516 ft | 335 kts | 275° |
| 2026-05-06 11:47 | 40.67290 | 28.81850 | 12209 ft | 336 kts | 283° |
| 2026-05-06 11:47 | 40.67720 | 28.78814 | 12904 ft | 339 kts | 283° |
| 2026-05-06 11:47 | 40.68171 | 28.75740 | 13605 ft | 343 kts | 284° |
| 2026-05-06 11:48 | 40.68623 | 28.72678 | 14261 ft | 346 kts | 284° |
| 2026-05-06 11:48 | 40.69082 | 28.69546 | 14879 ft | 350 kts | 284° |
| 2026-05-06 11:48 | 40.69543 | 28.66380 | 15478 ft | 353 kts | 284° |
| 2026-05-06 11:48 | 40.70005 | 28.63191 | 16093 ft | 355 kts | 284° |
| 2026-05-06 11:49 | 40.70313 | 28.61059 | 16488 ft | 358 kts | 284° |
| 2026-05-06 11:49 | 40.70779 | 28.57822 | 17048 ft | 361 kts | 284° |
| 2026-05-06 11:49 | 40.71404 | 28.53475 | 17792 ft | 366 kts | 284° |
| 2026-05-06 11:49 | 40.71878 | 28.50164 | 18355 ft | 370 kts | 284° |
| 2026-05-06 11:50 | 40.72357 | 28.46812 | 18857 ft | 372 kts | 284° |
| 2026-05-06 11:50 | 40.72680 | 28.44550 | 19240 ft | 373 kts | 284° |
| 2026-05-06 11:50 | 40.73159 | 28.41180 | 19770 ft | 375 kts | 284° |
| 2026-05-06 11:50 | 40.73634 | 28.37840 | 20292 ft | 377 kts | 284° |
| 2026-05-06 11:51 | 40.74116 | 28.34439 | 20802 ft | 378 kts | 284° |
| 2026-05-06 11:51 | 40.74601 | 28.31015 | 21321 ft | 380 kts | 284° |
| 2026-05-06 11:51 | 40.75088 | 28.27568 | 21833 ft | 382 kts | 284° |
| 2026-05-06 11:51 | 40.75575 | 28.24111 | 22326 ft | 384 kts | 284° |
| 2026-05-06 11:52 | 40.76064 | 28.20629 | 22822 ft | 386 kts | 284° |
| 2026-05-06 11:52 | 40.76555 | 28.17134 | 23308 ft | 388 kts | 284° |
| 2026-05-06 11:52 | 40.77048 | 28.13612 | 23767 ft | 391 kts | 284° |
| 2026-05-06 11:52 | 40.77540 | 28.10081 | 24178 ft | 392 kts | 284° |
| 2026-05-06 11:53 | 40.78034 | 28.06533 | 24576 ft | 394 kts | 284° |
| 2026-05-06 11:53 | 40.78529 | 28.02969 | 24985 ft | 395 kts | 284° |
| 2026-05-06 11:53 | 40.79017 | 27.99443 | 25358 ft | 397 kts | 284° |
| 2026-05-06 11:53 | 40.79516 | 27.95840 | 25728 ft | 399 kts | 284° |
| 2026-05-06 11:54 | 40.80014 | 27.92229 | 26097 ft | 400 kts | 284° |
| 2026-05-06 11:54 | 40.80513 | 27.88604 | 26463 ft | 402 kts | 284° |
| 2026-05-06 11:54 | 40.81013 | 27.84962 | 26814 ft | 404 kts | 284° |
| 2026-05-06 11:54 | 40.81514 | 27.81300 | 27157 ft | 406 kts | 284° |
| 2026-05-06 11:55 | 40.82010 | 27.77669 | 27487 ft | 407 kts | 284° |
| 2026-05-06 11:55 | 40.82513 | 27.73981 | 27814 ft | 409 kts | 284° |
| 2026-05-06 11:55 | 40.83017 | 27.70268 | 28131 ft | 411 kts | 284° |
| 2026-05-06 11:55 | 40.83523 | 27.66539 | 28440 ft | 413 kts | 284° |
| 2026-05-06 11:56 | 40.84028 | 27.62805 | 28736 ft | 414 kts | 284° |
| 2026-05-06 11:56 | 40.84535 | 27.59047 | 29024 ft | 416 kts | 284° |
| 2026-05-06 11:56 | 40.85042 | 27.55277 | 29300 ft | 417 kts | 284° |
| 2026-05-06 11:56 | 40.85549 | 27.51501 | 29576 ft | 419 kts | 284° |
| 2026-05-06 11:57 | 40.86059 | 27.47693 | 29852 ft | 420 kts | 284° |
| 2026-05-06 11:57 | 40.86567 | 27.43886 | 30103 ft | 422 kts | 284° |
| 2026-05-06 11:57 | 40.87077 | 27.40058 | 30338 ft | 424 kts | 284° |
| 2026-05-06 11:57 | 40.87588 | 27.36209 | 30560 ft | 425 kts | 284° |
| 2026-05-06 11:58 | 40.88099 | 27.32352 | 30774 ft | 427 kts | 284° |
| 2026-05-06 11:58 | 40.88611 | 27.28479 | 31002 ft | 429 kts | 283° |
| 2026-05-06 11:58 | 40.89124 | 27.24584 | 31241 ft | 430 kts | 283° |
| 2026-05-06 11:58 | 40.89634 | 27.20702 | 31541 ft | 429 kts | 283° |
| 2026-05-06 11:59 | 40.90143 | 27.16814 | 31831 ft | 429 kts | 283° |
| 2026-05-06 11:59 | 40.90651 | 27.12924 | 32110 ft | 429 kts | 283° |
| 2026-05-06 11:59 | 40.91151 | 27.09085 | 32385 ft | 428 kts | 283° |
| 2026-05-06 11:59 | 40.91655 | 27.05206 | 32681 ft | 427 kts | 283° |
| 2026-05-06 12:00 | 40.92139 | 27.01338 | 32952 ft | 427 kts | 281° |
| 2026-05-06 12:00 | 40.92400 | 26.97405 | 33207 ft | 430 kts | 276° |
| 2026-05-06 12:00 | 40.92367 | 26.93437 | 33458 ft | 433 kts | 271° |
| 2026-05-06 12:00 | 40.92125 | 26.89467 | 33700 ft | 434 kts | 270° |
| 2026-05-06 12:01 | 40.91890 | 26.85491 | 33939 ft | 433 kts | 270° |
| 2026-05-06 12:01 | 40.91661 | 26.81532 | 34206 ft | 431 kts | 270° |
| 2026-05-06 12:01 | 40.91434 | 26.77579 | 34406 ft | 431 kts | 270° |
| 2026-05-06 12:01 | 40.91204 | 26.73629 | 34596 ft | 431 kts | 270° |
| 2026-05-06 12:02 | 40.90972 | 26.69691 | 34782 ft | 430 kts | 270° |
| 2026-05-06 12:02 | 40.90737 | 26.65740 | 34966 ft | 430 kts | 270° |
| 2026-05-06 12:02 | 40.90500 | 26.61797 | 35133 ft | 430 kts | 270° |
| 2026-05-06 12:02 | 40.90262 | 26.57857 | 35286 ft | 430 kts | 270° |
| 2026-05-06 12:03 | 40.90026 | 26.53975 | 35458 ft | 429 kts | 270° |
| 2026-05-06 12:03 | 40.89785 | 26.50053 | 35661 ft | 427 kts | 270° |
| 2026-05-06 12:03 | 40.89545 | 26.46128 | 35811 ft | 427 kts | 270° |
| 2026-05-06 12:03 | 40.89303 | 26.42212 | 35953 ft | 427 kts | 270° |
| 2026-05-06 12:04 | 40.88816 | 26.34385 | 36058 ft | 425 kts | 270° |
| 2026-05-06 12:04 | 40.88329 | 26.26644 | 36058 ft | 425 kts | 270° |
| 2026-05-06 12:05 | 40.87524 | 26.18884 | 36074 ft | 425 kts | 266° |
| 2026-05-06 12:05 | 40.86644 | 26.11153 | 36075 ft | 426 kts | 266° |
| 2026-05-06 12:06 | 40.85761 | 26.03427 | 36073 ft | 425 kts | 266° |
| 2026-05-06 12:06 | 40.84867 | 25.95682 | 36074 ft | 426 kts | 266° |
| 2026-05-06 12:07 | 40.83973 | 25.88004 | 36083 ft | 426 kts | 266° |
| 2026-05-06 12:07 | 40.83067 | 25.80266 | 36078 ft | 426 kts | 267° |
| 2026-05-06 12:08 | 40.82159 | 25.72563 | 36073 ft | 423 kts | 267° |
| 2026-05-06 12:08 | 40.81252 | 25.64884 | 36073 ft | 424 kts | 267° |
| 2026-05-06 12:09 | 40.80337 | 25.57216 | 36074 ft | 422 kts | 267° |
| 2026-05-06 12:09 | 40.79419 | 25.49539 | 36073 ft | 423 kts | 267° |
| 2026-05-06 12:10 | 40.78501 | 25.41926 | 36070 ft | 423 kts | 267° |
| 2026-05-06 12:10 | 40.77573 | 25.34262 | 36065 ft | 423 kts | 267° |
| 2026-05-06 12:11 | 40.76640 | 25.26607 | 36070 ft | 422 kts | 266° |
| 2026-05-06 12:11 | 40.75707 | 25.19000 | 36071 ft | 422 kts | 266° |
| 2026-05-06 12:12 | 40.74766 | 25.11366 | 36061 ft | 422 kts | 266° |
| 2026-05-06 12:12 | 40.73819 | 25.03722 | 36068 ft | 422 kts | 266° |
| 2026-05-06 12:13 | 40.72868 | 24.96085 | 36064 ft | 422 kts | 266° |
| 2026-05-06 12:13 | 40.71912 | 24.88451 | 36066 ft | 422 kts | 266° |
| 2026-05-06 12:14 | 40.70949 | 24.80815 | 36066 ft | 422 kts | 266° |
| 2026-05-06 12:14 | 40.70111 | 24.73227 | 36069 ft | 419 kts | 271° |
| 2026-05-06 12:15 | 40.69793 | 24.65578 | 36062 ft | 418 kts | 272° |
| 2026-05-06 12:15 | 40.69472 | 24.57933 | 36071 ft | 418 kts | 271° |
| 2026-05-06 12:16 | 40.69143 | 24.50287 | 36067 ft | 418 kts | 271° |
| 2026-05-06 12:16 | 40.68806 | 24.42640 | 36068 ft | 418 kts | 271° |
| 2026-05-06 12:17 | 40.68464 | 24.34990 | 36063 ft | 418 kts | 271° |
| 2026-05-06 12:17 | 40.68117 | 24.27353 | 36064 ft | 418 kts | 271° |
| 2026-05-06 12:18 | 40.67762 | 24.19705 | 36063 ft | 418 kts | 271° |
| 2026-05-06 12:18 | 40.67406 | 24.12109 | 36064 ft | 418 kts | 271° |
| 2026-05-06 12:19 | 40.67042 | 24.04443 | 36061 ft | 418 kts | 270° |
| 2026-05-06 12:19 | 40.66673 | 23.96792 | 36062 ft | 418 kts | 270° |
| 2026-05-06 12:20 | 40.66299 | 23.89143 | 36062 ft | 418 kts | 270° |
| 2026-05-06 12:20 | 40.65922 | 23.81551 | 36064 ft | 418 kts | 270° |
| 2026-05-06 12:21 | 40.65538 | 23.73900 | 36052 ft | 418 kts | 270° |
| 2026-05-06 12:21 | 40.65149 | 23.66257 | 36065 ft | 418 kts | 270° |
| 2026-05-06 12:22 | 40.64754 | 23.58601 | 36058 ft | 419 kts | 270° |
| 2026-05-06 12:22 | 40.64355 | 23.50948 | 36059 ft | 419 kts | 270° |
| 2026-05-06 12:23 | 40.63950 | 23.43287 | 36058 ft | 419 kts | 270° |
| 2026-05-06 12:23 | 40.63541 | 23.35636 | 36051 ft | 419 kts | 269° |
| 2026-05-06 12:24 | 40.63126 | 23.27987 | 36051 ft | 419 kts | 269° |
| 2026-05-06 12:24 | 40.62706 | 23.20334 | 36053 ft | 419 kts | 269° |
| 2026-05-06 12:25 | 40.62282 | 23.12709 | 36053 ft | 419 kts | 269° |
| 2026-05-06 12:25 | 40.61853 | 23.05065 | 36047 ft | 416 kts | 269° |
| 2026-05-06 12:26 | 40.61422 | 22.97499 | 36047 ft | 417 kts | 269° |
| 2026-05-06 12:26 | 40.60984 | 22.89883 | 36048 ft | 417 kts | 269° |
| 2026-05-06 12:27 | 40.60541 | 22.82272 | 36046 ft | 417 kts | 269° |
| 2026-05-06 12:27 | 40.60093 | 22.74657 | 36048 ft | 417 kts | 268° |
| 2026-05-06 12:28 | 40.59641 | 22.67057 | 36041 ft | 416 kts | 268° |
| 2026-05-06 12:28 | 40.59186 | 22.59518 | 36036 ft | 416 kts | 268° |
| 2026-05-06 12:29 | 40.58724 | 22.51934 | 36030 ft | 415 kts | 268° |
| 2026-05-06 12:29 | 40.58259 | 22.44353 | 36025 ft | 415 kts | 268° |
| 2026-05-06 12:30 | 40.57788 | 22.36777 | 36024 ft | 415 kts | 268° |
| 2026-05-06 12:30 | 40.57312 | 22.29216 | 36027 ft | 415 kts | 268° |
| 2026-05-06 12:31 | 40.56834 | 22.21688 | 36026 ft | 415 kts | 267° |
| 2026-05-06 12:31 | 40.56347 | 22.14102 | 36026 ft | 415 kts | 267° |
| 2026-05-06 12:32 | 40.55857 | 22.06528 | 36036 ft | 416 kts | 267° |
| 2026-05-06 12:32 | 40.55360 | 21.98946 | 36043 ft | 416 kts | 267° |
| 2026-05-06 12:33 | 40.54861 | 21.91404 | 36055 ft | 417 kts | 267° |
| 2026-05-06 12:33 | 40.54353 | 21.83806 | 36056 ft | 417 kts | 267° |
| 2026-05-06 12:34 | 40.53841 | 21.76201 | 36058 ft | 418 kts | 266° |
| 2026-05-06 12:34 | 40.53322 | 21.68588 | 36052 ft | 418 kts | 266° |
| 2026-05-06 12:35 | 40.52798 | 21.60981 | 36052 ft | 417 kts | 266° |
| 2026-05-06 12:35 | 40.52269 | 21.53378 | 36043 ft | 417 kts | 266° |
| 2026-05-06 12:36 | 40.51741 | 21.45839 | 36032 ft | 416 kts | 266° |
| 2026-05-06 12:36 | 40.51204 | 21.38258 | 36038 ft | 417 kts | 266° |
| 2026-05-06 12:37 | 40.50662 | 21.30669 | 36040 ft | 417 kts | 266° |
| 2026-05-06 12:37 | 40.50114 | 21.23081 | 36040 ft | 417 kts | 266° |
| 2026-05-06 12:38 | 40.49565 | 21.15540 | 36041 ft | 416 kts | 266° |
| 2026-05-06 12:38 | 40.49100 | 21.09192 | 36057 ft | 416 kts | 265° |
| 2026-05-06 12:39 | 40.48543 | 21.01626 | 36059 ft | 416 kts | 265° |
| 2026-05-06 12:39 | 40.48212 | 20.94085 | 36061 ft | 415 kts | 273° |
| 2026-05-06 12:40 | 40.48699 | 20.86529 | 36069 ft | 415 kts | 276° |
| 2026-05-06 12:40 | 40.49219 | 20.78979 | 36056 ft | 415 kts | 275° |
| 2026-05-06 12:41 | 40.49723 | 20.71463 | 36071 ft | 415 kts | 275° |
| 2026-05-06 12:41 | 40.50224 | 20.63898 | 36071 ft | 415 kts | 275° |
| 2026-05-06 12:42 | 40.50719 | 20.56352 | 36066 ft | 413 kts | 275° |
| 2026-05-06 12:42 | 40.51209 | 20.48800 | 36066 ft | 414 kts | 275° |
| 2026-05-06 12:43 | 40.51692 | 20.41303 | 36064 ft | 414 kts | 275° |
| 2026-05-06 12:43 | 40.52173 | 20.33746 | 36069 ft | 414 kts | 275° |
| 2026-05-06 12:44 | 40.52648 | 20.26194 | 36073 ft | 414 kts | 275° |
| 2026-05-06 12:44 | 40.53117 | 20.18656 | 36060 ft | 412 kts | 275° |
| 2026-05-06 12:45 | 40.53577 | 20.11194 | 36055 ft | 411 kts | 274° |
| 2026-05-06 12:46 | 40.54269 | 19.99849 | 36070 ft | 416 kts | 274° |
| 2026-05-06 12:46 | 40.54723 | 19.92279 | 36064 ft | 414 kts | 274° |
| 2026-05-06 12:47 | 40.55170 | 19.84753 | 36067 ft | 415 kts | 274° |
| 2026-05-06 12:47 | 40.55612 | 19.77189 | 36066 ft | 415 kts | 274° |
| 2026-05-06 12:48 | 40.56050 | 19.69610 | 36076 ft | 416 kts | 274° |
| 2026-05-06 12:48 | 40.56483 | 19.62008 | 36084 ft | 417 kts | 274° |
| 2026-05-06 12:49 | 40.56913 | 19.54412 | 36076 ft | 414 kts | 274° |
| 2026-05-06 12:49 | 40.57333 | 19.46892 | 36083 ft | 415 kts | 274° |
| 2026-05-06 12:50 | 40.57752 | 19.39294 | 36079 ft | 417 kts | 273° |
| 2026-05-06 12:50 | 40.58167 | 19.31679 | 36082 ft | 416 kts | 273° |
| 2026-05-06 12:51 | 40.58574 | 19.24112 | 36076 ft | 416 kts | 273° |
| 2026-05-06 12:51 | 40.58978 | 19.16506 | 36078 ft | 417 kts | 273° |
| 2026-05-06 12:52 | 40.59379 | 19.08887 | 36080 ft | 417 kts | 273° |
| 2026-05-06 12:52 | 40.59773 | 19.01280 | 36086 ft | 417 kts | 273° |
| 2026-05-06 12:53 | 40.59917 | 18.93658 | 36082 ft | 416 kts | 270° |
| 2026-05-06 12:53 | 40.60023 | 18.86044 | 36083 ft | 416 kts | 270° |
| 2026-05-06 12:54 | 40.60132 | 18.78471 | 36083 ft | 416 kts | 270° |
| 2026-05-06 12:54 | 40.60236 | 18.70853 | 36067 ft | 416 kts | 270° |
| 2026-05-06 12:55 | 40.60334 | 18.63243 | 36062 ft | 416 kts | 270° |
| 2026-05-06 12:55 | 40.60424 | 18.55615 | 36060 ft | 416 kts | 270° |
| 2026-05-06 12:56 | 40.60507 | 18.48003 | 36060 ft | 416 kts | 270° |
| 2026-05-06 12:56 | 40.60586 | 18.40370 | 36062 ft | 416 kts | 270° |
| 2026-05-06 12:57 | 40.60659 | 18.32749 | 36060 ft | 416 kts | 270° |
| 2026-05-06 12:57 | 40.60727 | 18.25174 | 36056 ft | 416 kts | 270° |
| 2026-05-06 12:58 | 40.60791 | 18.17560 | 36055 ft | 416 kts | 270° |
| 2026-05-06 12:58 | 40.60849 | 18.09944 | 36050 ft | 416 kts | 270° |
| 2026-05-06 12:59 | 40.60903 | 18.02331 | 36055 ft | 415 kts | 270° |
| 2026-05-06 12:59 | 40.60951 | 17.94721 | 36049 ft | 415 kts | 269° |
| 2026-05-06 13:00 | 40.60994 | 17.87128 | 36045 ft | 415 kts | 269° |
| 2026-05-06 13:00 | 40.61033 | 17.79559 | 36054 ft | 415 kts | 269° |
| 2026-05-06 13:01 | 40.61066 | 17.71974 | 36043 ft | 412 kts | 269° |
| 2026-05-06 13:01 | 40.61094 | 17.64450 | 36044 ft | 413 kts | 269° |
| 2026-05-06 13:02 | 40.61118 | 17.56891 | 36048 ft | 412 kts | 269° |
| 2026-05-06 13:02 | 40.61136 | 17.49343 | 36048 ft | 412 kts | 269° |
| 2026-05-06 13:03 | 40.61150 | 17.41790 | 36049 ft | 412 kts | 269° |
| 2026-05-06 13:03 | 40.61159 | 17.34312 | 36047 ft | 409 kts | 269° |
| 2026-05-06 13:04 | 40.61163 | 17.26822 | 36044 ft | 410 kts | 269° |
| 2026-05-06 13:04 | 40.61161 | 17.19357 | 36044 ft | 409 kts | 269° |
| 2026-05-06 13:05 | 40.61155 | 17.11863 | 36041 ft | 409 kts | 269° |
| 2026-05-06 13:05 | 40.61145 | 17.04356 | 36043 ft | 409 kts | 269° |
| 2026-05-06 13:06 | 40.61130 | 16.96892 | 36044 ft | 406 kts | 268° |
| 2026-05-06 13:06 | 40.61109 | 16.89493 | 36041 ft | 407 kts | 268° |
| 2026-05-06 13:07 | 40.61084 | 16.82033 | 36090 ft | 407 kts | 268° |
| 2026-05-06 13:07 | 40.61054 | 16.74575 | 36102 ft | 407 kts | 268° |
| 2026-05-06 13:08 | 40.61021 | 16.67122 | 36096 ft | 408 kts | 268° |
| 2026-05-06 13:08 | 40.60981 | 16.59657 | 36095 ft | 408 kts | 268° |
| 2026-05-06 13:09 | 40.60936 | 16.52176 | 36086 ft | 408 kts | 268° |
| 2026-05-06 13:09 | 40.60887 | 16.44699 | 36071 ft | 409 kts | 268° |
| 2026-05-06 13:10 | 40.60833 | 16.37270 | 36054 ft | 409 kts | 268° |
| 2026-05-06 13:10 | 40.60774 | 16.29765 | 36038 ft | 410 kts | 268° |
| 2026-05-06 13:11 | 40.60710 | 16.22261 | 36027 ft | 410 kts | 268° |
| 2026-05-06 13:11 | 40.60642 | 16.14750 | 36021 ft | 409 kts | 268° |
| 2026-05-06 13:12 | 40.60568 | 16.07262 | 36017 ft | 409 kts | 268° |
| 2026-05-06 13:12 | 40.60490 | 15.99786 | 36006 ft | 409 kts | 268° |
| 2026-05-06 13:13 | 40.60408 | 15.92356 | 36008 ft | 405 kts | 268° |
| 2026-05-06 13:13 | 40.60322 | 15.84983 | 36009 ft | 406 kts | 268° |
| 2026-05-06 13:14 | 40.60230 | 15.77550 | 36004 ft | 405 kts | 268° |
| 2026-05-06 13:14 | 40.60133 | 15.70134 | 36010 ft | 405 kts | 268° |
| 2026-05-06 13:15 | 40.60033 | 15.62759 | 36021 ft | 405 kts | 267° |
| 2026-05-06 13:15 | 40.59928 | 15.55385 | 36012 ft | 402 kts | 267° |
| 2026-05-06 13:16 | 40.59818 | 15.48031 | 36012 ft | 402 kts | 267° |
| 2026-05-06 13:16 | 40.59704 | 15.40685 | 36013 ft | 401 kts | 267° |
| 2026-05-06 13:17 | 40.59584 | 15.33325 | 36012 ft | 402 kts | 267° |
| 2026-05-06 13:17 | 40.59461 | 15.26026 | 36009 ft | 398 kts | 267° |
| 2026-05-06 13:18 | 40.59335 | 15.18793 | 36012 ft | 396 kts | 267° |
| 2026-05-06 13:18 | 40.59204 | 15.11548 | 36012 ft | 397 kts | 267° |
| 2026-05-06 13:19 | 40.59068 | 15.04285 | 36012 ft | 396 kts | 267° |
| 2026-05-06 13:19 | 40.58928 | 14.97035 | 36021 ft | 396 kts | 267° |
| 2026-05-06 13:20 | 40.58783 | 14.89797 | 36017 ft | 392 kts | 267° |
| 2026-05-06 13:20 | 40.58637 | 14.82664 | 36021 ft | 390 kts | 267° |
| 2026-05-06 13:21 | 40.58485 | 14.75513 | 36020 ft | 391 kts | 267° |
| 2026-05-06 13:21 | 40.58331 | 14.68421 | 36019 ft | 390 kts | 267° |
| 2026-05-06 13:22 | 40.58170 | 14.61280 | 36017 ft | 390 kts | 267° |
| 2026-05-06 13:22 | 40.58006 | 14.54132 | 36012 ft | 390 kts | 267° |
| 2026-05-06 13:23 | 40.57837 | 14.46990 | 36011 ft | 390 kts | 266° |
| 2026-05-06 13:23 | 40.57665 | 14.39894 | 36011 ft | 390 kts | 266° |
| 2026-05-06 13:24 | 40.57487 | 14.32771 | 36013 ft | 390 kts | 266° |
| 2026-05-06 13:24 | 40.57305 | 14.25639 | 36013 ft | 390 kts | 266° |
| 2026-05-06 13:25 | 40.57120 | 14.18510 | 36024 ft | 390 kts | 266° |
| 2026-05-06 13:25 | 40.56930 | 14.11377 | 36022 ft | 389 kts | 266° |
| 2026-05-06 13:26 | 40.56735 | 14.04269 | 36021 ft | 389 kts | 266° |
| 2026-05-06 13:26 | 40.56536 | 13.97162 | 36016 ft | 388 kts | 266° |
| 2026-05-06 13:27 | 40.56334 | 13.90112 | 36010 ft | 388 kts | 266° |
| 2026-05-06 13:27 | 40.56128 | 13.83032 | 36022 ft | 387 kts | 266° |
| 2026-05-06 13:28 | 40.55917 | 13.75953 | 36018 ft | 387 kts | 265° |
| 2026-05-06 13:28 | 40.55739 | 13.70080 | 36015 ft | 386 kts | 265° |
| 2026-05-06 13:29 | 40.55520 | 13.63025 | 36009 ft | 386 kts | 265° |
| 2026-05-06 13:29 | 40.55298 | 13.55985 | 36007 ft | 385 kts | 265° |
| 2026-05-06 13:30 | 40.55073 | 13.48964 | 36035 ft | 383 kts | 265° |
| 2026-05-06 13:30 | 40.54845 | 13.41956 | 36018 ft | 383 kts | 265° |
| 2026-05-06 13:31 | 40.54612 | 13.34999 | 36010 ft | 382 kts | 265° |
| 2026-05-06 13:31 | 40.54374 | 13.28012 | 36004 ft | 381 kts | 265° |
| 2026-05-06 13:32 | 40.54135 | 13.21045 | 36001 ft | 381 kts | 265° |
| 2026-05-06 13:32 | 40.53894 | 13.14088 | 35996 ft | 381 kts | 265° |
| 2026-05-06 13:33 | 40.53651 | 13.07130 | 35997 ft | 380 kts | 264° |
| 2026-05-06 13:33 | 40.53404 | 13.00221 | 35995 ft | 380 kts | 264° |
| 2026-05-06 13:34 | 40.53267 | 12.93254 | 35991 ft | 381 kts | 267° |
| 2026-05-06 13:34 | 40.53302 | 12.86280 | 35992 ft | 382 kts | 267° |
| 2026-05-06 13:35 | 40.53318 | 12.79297 | 35993 ft | 382 kts | 266° |
| 2026-05-06 13:35 | 40.53316 | 12.72310 | 35988 ft | 383 kts | 266° |
| 2026-05-06 13:36 | 40.53302 | 12.65303 | 35991 ft | 383 kts | 266° |
| 2026-05-06 13:36 | 40.53282 | 12.58289 | 35998 ft | 384 kts | 266° |
| 2026-05-06 13:37 | 40.53257 | 12.51253 | 35999 ft | 385 kts | 266° |
| 2026-05-06 13:37 | 40.53229 | 12.44249 | 36006 ft | 386 kts | 266° |
| 2026-05-06 13:38 | 40.53196 | 12.37186 | 36014 ft | 387 kts | 266° |
| 2026-05-06 13:38 | 40.53159 | 12.30113 | 36014 ft | 387 kts | 266° |
| 2026-05-06 13:39 | 40.53118 | 12.23033 | 36001 ft | 385 kts | 266° |
| 2026-05-06 13:39 | 40.53073 | 12.15992 | 35996 ft | 385 kts | 265° |
| 2026-05-06 13:40 | 40.53022 | 12.08940 | 35996 ft | 386 kts | 265° |
| 2026-05-06 13:40 | 40.52969 | 12.01937 | 35997 ft | 386 kts | 265° |
| 2026-05-06 13:41 | 40.52911 | 11.94897 | 35993 ft | 385 kts | 265° |
| 2026-05-06 13:41 | 40.52848 | 11.87842 | 35992 ft | 385 kts | 265° |
| 2026-05-06 13:42 | 40.52781 | 11.80795 | 35992 ft | 385 kts | 265° |
| 2026-05-06 13:42 | 40.52709 | 11.73740 | 35962 ft | 386 kts | 265° |
| 2026-05-06 13:43 | 40.52633 | 11.66689 | 35996 ft | 386 kts | 265° |
| 2026-05-06 13:43 | 40.52555 | 11.59663 | 35971 ft | 387 kts | 265° |
| 2026-05-06 13:44 | 40.52470 | 11.52586 | 35988 ft | 387 kts | 264° |
| 2026-05-06 13:44 | 40.52381 | 11.45512 | 35986 ft | 387 kts | 264° |
| 2026-05-06 13:45 | 40.52288 | 11.38475 | 35983 ft | 387 kts | 264° |
| 2026-05-06 13:45 | 40.52141 | 11.27870 | 35984 ft | 387 kts | 264° |
| 2026-05-06 13:46 | 40.52037 | 11.20788 | 35983 ft | 387 kts | 264° |
| 2026-05-06 13:46 | 40.51929 | 11.13715 | 35973 ft | 387 kts | 264° |
| 2026-05-06 13:47 | 40.51816 | 11.06645 | 35981 ft | 387 kts | 264° |
| 2026-05-06 13:47 | 40.51699 | 10.99570 | 35977 ft | 387 kts | 264° |
| 2026-05-06 13:48 | 40.51579 | 10.92543 | 35970 ft | 386 kts | 264° |
| 2026-05-06 13:48 | 40.51454 | 10.85481 | 35969 ft | 386 kts | 264° |
| 2026-05-06 13:49 | 40.51324 | 10.78425 | 35964 ft | 386 kts | 264° |
| 2026-05-06 13:49 | 40.51191 | 10.71372 | 35961 ft | 386 kts | 264° |
| 2026-05-06 13:50 | 40.51053 | 10.64310 | 35957 ft | 386 kts | 264° |
| 2026-05-06 13:50 | 40.50910 | 10.57241 | 35980 ft | 386 kts | 263° |
| 2026-05-06 13:51 | 40.50763 | 10.50167 | 35957 ft | 387 kts | 263° |
| 2026-05-06 13:51 | 40.50612 | 10.43132 | 35958 ft | 387 kts | 263° |
| 2026-05-06 13:52 | 40.50456 | 10.36057 | 35956 ft | 387 kts | 263° |
| 2026-05-06 13:52 | 40.50296 | 10.28980 | 35958 ft | 388 kts | 263° |
| 2026-05-06 13:53 | 40.50131 | 10.21882 | 35953 ft | 388 kts | 263° |
| 2026-05-06 13:53 | 40.49963 | 10.14772 | 35951 ft | 389 kts | 263° |
| 2026-05-06 13:54 | 40.49789 | 10.07697 | 35951 ft | 390 kts | 263° |
| 2026-05-06 13:54 | 40.49610 | 10.00568 | 35955 ft | 390 kts | 263° |
| 2026-05-06 13:55 | 40.49427 | 9.93440 | 35956 ft | 391 kts | 263° |
| 2026-05-06 13:55 | 40.49239 | 9.86299 | 35962 ft | 391 kts | 263° |
| 2026-05-06 13:56 | 40.49047 | 9.79142 | 35929 ft | 392 kts | 262° |
| 2026-05-06 13:56 | 40.48850 | 9.71977 | 35940 ft | 392 kts | 262° |
| 2026-05-06 13:57 | 40.48649 | 9.64856 | 35947 ft | 393 kts | 262° |
| 2026-05-06 13:57 | 40.48443 | 9.57668 | 35949 ft | 393 kts | 262° |
| 2026-05-06 13:58 | 40.48231 | 9.50474 | 35949 ft | 394 kts | 262° |
| 2026-05-06 13:58 | 40.48014 | 9.43268 | 35961 ft | 396 kts | 262° |
| 2026-05-06 13:59 | 40.47794 | 9.36064 | 35951 ft | 393 kts | 262° |
| 2026-05-06 13:59 | 40.47570 | 9.28916 | 35953 ft | 395 kts | 262° |
| 2026-05-06 14:00 | 40.47341 | 9.21696 | 35953 ft | 394 kts | 262° |
| 2026-05-06 14:00 | 40.47107 | 9.14494 | 35955 ft | 394 kts | 262° |
| 2026-05-06 14:01 | 40.46869 | 9.07325 | 35954 ft | 396 kts | 262° |
| 2026-05-06 14:01 | 40.46625 | 9.00079 | 35947 ft | 398 kts | 261° |
| 2026-05-06 14:02 | 40.46375 | 8.92822 | 35957 ft | 398 kts | 261° |
| 2026-05-06 14:02 | 40.46121 | 8.85558 | 35957 ft | 398 kts | 261° |
| 2026-05-06 14:03 | 40.45861 | 8.78281 | 35962 ft | 399 kts | 261° |
| 2026-05-06 14:03 | 40.45599 | 8.71047 | 35965 ft | 398 kts | 262° |
| 2026-05-06 14:04 | 40.45326 | 8.63750 | 35944 ft | 401 kts | 262° |
| 2026-05-06 14:04 | 40.45053 | 8.56447 | 35944 ft | 400 kts | 262° |
| 2026-05-06 14:05 | 40.44776 | 8.49176 | 35944 ft | 400 kts | 262° |
| 2026-05-06 14:05 | 40.44494 | 8.41873 | 35959 ft | 400 kts | 262° |
| 2026-05-06 14:06 | 40.44208 | 8.34566 | 35958 ft | 401 kts | 262° |
| 2026-05-06 14:06 | 40.43914 | 8.27238 | 35938 ft | 403 kts | 263° |
| 2026-05-06 14:07 | 40.43521 | 8.19958 | 35937 ft | 403 kts | 262° |
| 2026-05-06 14:07 | 40.43130 | 8.12613 | 35942 ft | 404 kts | 262° |
| 2026-05-06 14:08 | 40.42742 | 8.05240 | 35948 ft | 404 kts | 262° |
| 2026-05-06 14:08 | 40.42200 | 7.97885 | 35955 ft | 403 kts | 257° |
| 2026-05-06 14:09 | 40.41280 | 7.90686 | 35954 ft | 400 kts | 257° |
| 2026-05-06 14:09 | 40.40370 | 7.83478 | 35950 ft | 401 kts | 257° |
| 2026-05-06 14:10 | 40.39455 | 7.76258 | 35951 ft | 401 kts | 257° |
| 2026-05-06 14:10 | 40.38535 | 7.69045 | 35949 ft | 401 kts | 257° |
| 2026-05-06 14:11 | 40.37610 | 7.61837 | 35949 ft | 401 kts | 257° |
| 2026-05-06 14:11 | 40.36682 | 7.54631 | 35952 ft | 401 kts | 257° |
| 2026-05-06 14:12 | 40.35753 | 7.47459 | 35948 ft | 401 kts | 257° |
| 2026-05-06 14:12 | 40.34814 | 7.40256 | 35948 ft | 401 kts | 257° |
| 2026-05-06 14:13 | 40.33872 | 7.33058 | 35950 ft | 401 kts | 257° |
| 2026-05-06 14:13 | 40.32924 | 7.25848 | 35947 ft | 400 kts | 257° |
| 2026-05-06 14:14 | 40.31978 | 7.18694 | 35945 ft | 400 kts | 257° |
| 2026-05-06 14:14 | 40.31024 | 7.11499 | 35945 ft | 400 kts | 257° |
| 2026-05-06 14:15 | 40.30065 | 7.04304 | 35945 ft | 400 kts | 257° |
| 2026-05-06 14:15 | 40.29102 | 6.97124 | 35946 ft | 400 kts | 257° |
| 2026-05-06 14:16 | 40.28296 | 6.91141 | 35945 ft | 400 kts | 257° |
| 2026-05-06 14:16 | 40.27166 | 6.82792 | 35938 ft | 400 kts | 257° |
| 2026-05-06 14:17 | 40.26352 | 6.76817 | 35946 ft | 400 kts | 257° |
| 2026-05-06 14:17 | 40.25374 | 6.69647 | 35946 ft | 400 kts | 257° |
| 2026-05-06 14:18 | 40.24389 | 6.62467 | 35945 ft | 400 kts | 257° |
| 2026-05-06 14:18 | 40.23400 | 6.55300 | 35946 ft | 400 kts | 257° |
| 2026-05-06 14:19 | 40.22406 | 6.48130 | 35950 ft | 400 kts | 257° |
| 2026-05-06 14:19 | 40.21407 | 6.40959 | 35963 ft | 401 kts | 257° |
| 2026-05-06 14:20 | 40.20410 | 6.33829 | 35958 ft | 400 kts | 257° |
| 2026-05-06 14:20 | 40.19404 | 6.26671 | 35955 ft | 400 kts | 257° |
| 2026-05-06 14:21 | 40.18394 | 6.19519 | 35956 ft | 399 kts | 257° |
| 2026-05-06 14:21 | 40.17382 | 6.12380 | 35953 ft | 399 kts | 257° |
| 2026-05-06 14:22 | 40.16365 | 6.05249 | 35948 ft | 397 kts | 257° |
| 2026-05-06 14:22 | 40.15350 | 5.98157 | 35947 ft | 397 kts | 257° |
| 2026-05-06 14:23 | 40.14335 | 5.91107 | 35946 ft | 397 kts | 257° |
| 2026-05-06 14:23 | 40.13308 | 5.83976 | 35946 ft | 397 kts | 257° |
| 2026-05-06 14:24 | 40.12315 | 5.76918 | 35949 ft | 397 kts | 257° |
| 2026-05-06 14:24 | 40.11318 | 5.69820 | 35946 ft | 396 kts | 257° |
| 2026-05-06 14:25 | 40.10315 | 5.62742 | 35952 ft | 396 kts | 257° |
| 2026-05-06 14:25 | 40.09314 | 5.55717 | 35950 ft | 395 kts | 257° |
| 2026-05-06 14:26 | 40.08302 | 5.48649 | 35951 ft | 395 kts | 257° |
| 2026-05-06 14:26 | 40.07287 | 5.41593 | 35945 ft | 395 kts | 257° |
| 2026-05-06 14:27 | 40.06270 | 5.34554 | 35943 ft | 394 kts | 257° |
| 2026-05-06 14:27 | 40.05254 | 5.27558 | 35952 ft | 394 kts | 257° |
| 2026-05-06 14:28 | 40.04229 | 5.20523 | 35951 ft | 394 kts | 257° |
| 2026-05-06 14:28 | 40.03200 | 5.13493 | 35945 ft | 394 kts | 257° |
| 2026-05-06 14:29 | 40.02168 | 5.06478 | 35944 ft | 393 kts | 257° |
| 2026-05-06 14:29 | 40.01140 | 4.99516 | 35946 ft | 393 kts | 257° |
| 2026-05-06 14:30 | 40.00099 | 4.92503 | 35945 ft | 393 kts | 257° |
| 2026-05-06 14:30 | 39.99056 | 4.85504 | 35951 ft | 393 kts | 257° |
| 2026-05-06 14:31 | 39.98010 | 4.78510 | 35944 ft | 393 kts | 256° |
| 2026-05-06 14:31 | 39.96674 | 4.71625 | 35942 ft | 391 kts | 253° |
| 2026-05-06 14:32 | 39.95272 | 4.64753 | 35943 ft | 391 kts | 253° |
| 2026-05-06 14:32 | 39.93879 | 4.57940 | 35917 ft | 391 kts | 253° |
| 2026-05-06 14:33 | 39.92471 | 4.51088 | 35947 ft | 391 kts | 253° |
| 2026-05-06 14:33 | 39.91059 | 4.44244 | 35962 ft | 391 kts | 253° |
| 2026-05-06 14:34 | 39.89643 | 4.37403 | 35966 ft | 391 kts | 253° |
| 2026-05-06 14:34 | 39.88221 | 4.30557 | 35960 ft | 391 kts | 253° |
| 2026-05-06 14:35 | 39.86794 | 4.23711 | 35958 ft | 392 kts | 253° |
| 2026-05-06 14:35 | 39.85371 | 4.16897 | 35969 ft | 392 kts | 253° |
| 2026-05-06 14:36 | 39.83939 | 4.10045 | 35973 ft | 392 kts | 253° |
| 2026-05-06 14:36 | 39.82504 | 4.03205 | 35968 ft | 392 kts | 253° |
| 2026-05-06 14:37 | 39.81065 | 3.96367 | 35960 ft | 392 kts | 253° |
| 2026-05-06 14:37 | 39.79623 | 3.89534 | 35955 ft | 391 kts | 253° |
| 2026-05-06 14:38 | 39.78187 | 3.82757 | 35948 ft | 391 kts | 253° |
| 2026-05-06 14:38 | 39.76734 | 3.75920 | 35942 ft | 391 kts | 253° |
| 2026-05-06 14:39 | 39.75278 | 3.69091 | 35943 ft | 391 kts | 253° |
| 2026-05-06 14:39 | 39.73832 | 3.62328 | 35935 ft | 391 kts | 253° |
| 2026-05-06 14:40 | 39.72373 | 3.55528 | 35934 ft | 390 kts | 253° |
| 2026-05-06 14:40 | 39.70912 | 3.48739 | 35936 ft | 390 kts | 253° |
| 2026-05-06 14:41 | 39.69364 | 3.41968 | 35933 ft | 390 kts | 249° |
| 2026-05-06 14:41 | 39.67488 | 3.35364 | 35935 ft | 390 kts | 249° |
| 2026-05-06 14:42 | 39.65635 | 3.28793 | 35935 ft | 390 kts | 249° |
| 2026-05-06 14:42 | 39.63763 | 3.22176 | 35937 ft | 390 kts | 249° |
| 2026-05-06 14:43 | 39.61886 | 3.15561 | 35937 ft | 391 kts | 249° |
| 2026-05-06 14:43 | 39.59998 | 3.08931 | 35939 ft | 391 kts | 249° |
| 2026-05-06 14:44 | 39.58110 | 3.02314 | 35938 ft | 389 kts | 249° |
| 2026-05-06 14:45 | 39.55299 | 2.92494 | 35940 ft | 389 kts | 249° |
| 2026-05-06 14:45 | 39.53410 | 2.85916 | 35932 ft | 389 kts | 249° |
| 2026-05-06 14:46 | 39.51516 | 2.79333 | 35939 ft | 390 kts | 249° |
| 2026-05-06 14:46 | 39.49617 | 2.72753 | 35938 ft | 389 kts | 249° |
| 2026-05-06 14:47 | 39.47732 | 2.66235 | 35955 ft | 389 kts | 249° |
| 2026-05-06 14:47 | 39.45831 | 2.59679 | 35940 ft | 388 kts | 249° |
| 2026-05-06 14:48 | 39.43931 | 2.53143 | 35934 ft | 388 kts | 249° |
| 2026-05-06 14:48 | 39.42029 | 2.46615 | 35930 ft | 388 kts | 249° |
| 2026-05-06 14:49 | 39.40125 | 2.40096 | 35927 ft | 387 kts | 248° |
| 2026-05-06 14:49 | 39.38214 | 2.33573 | 35925 ft | 387 kts | 248° |
| 2026-05-06 14:50 | 39.36303 | 2.27061 | 35928 ft | 387 kts | 248° |
| 2026-05-06 14:50 | 39.34389 | 2.20555 | 35927 ft | 387 kts | 248° |
| 2026-05-06 14:51 | 39.32483 | 2.14095 | 35916 ft | 387 kts | 248° |
| 2026-05-06 14:51 | 39.30562 | 2.07598 | 35920 ft | 387 kts | 248° |
| 2026-05-06 14:52 | 39.28632 | 2.01086 | 35923 ft | 387 kts | 248° |
| 2026-05-06 14:52 | 39.26710 | 1.94617 | 35930 ft | 388 kts | 248° |
| 2026-05-06 14:53 | 39.24769 | 1.88100 | 35934 ft | 389 kts | 248° |
| 2026-05-06 14:53 | 39.22822 | 1.81578 | 35938 ft | 390 kts | 248° |
| 2026-05-06 14:54 | 39.20870 | 1.75057 | 35941 ft | 390 kts | 248° |
| 2026-05-06 14:54 | 39.18922 | 1.68564 | 35941 ft | 390 kts | 248° |
| 2026-05-06 14:55 | 39.16955 | 1.62023 | 35944 ft | 391 kts | 248° |
| 2026-05-06 14:55 | 39.14986 | 1.55491 | 35948 ft | 391 kts | 248° |
| 2026-05-06 14:56 | 39.13017 | 1.48974 | 35937 ft | 389 kts | 248° |
| 2026-05-06 14:56 | 39.11054 | 1.42491 | 35918 ft | 388 kts | 248° |
| 2026-05-06 14:57 | 39.09079 | 1.35997 | 35936 ft | 389 kts | 248° |
| 2026-05-06 14:57 | 39.07118 | 1.29561 | 35936 ft | 389 kts | 248° |
| 2026-05-06 14:58 | 39.05138 | 1.23076 | 35937 ft | 389 kts | 248° |
| 2026-05-06 14:58 | 39.03152 | 1.16591 | 35940 ft | 389 kts | 248° |
| 2026-05-06 14:59 | 39.01163 | 1.10109 | 35942 ft | 389 kts | 248° |
| 2026-05-06 14:59 | 38.99186 | 1.03679 | 35942 ft | 389 kts | 248° |
| 2026-05-06 15:00 | 38.97189 | 0.97203 | 35941 ft | 389 kts | 248° |
| 2026-05-06 15:00 | 38.95198 | 0.90757 | 35941 ft | 388 kts | 248° |
| 2026-05-06 15:01 | 38.93205 | 0.84313 | 35937 ft | 388 kts | 248° |
| 2026-05-06 15:01 | 38.91205 | 0.77863 | 35936 ft | 388 kts | 248° |
| 2026-05-06 15:02 | 38.89214 | 0.71461 | 35935 ft | 388 kts | 248° |
| 2026-05-06 15:02 | 38.87212 | 0.65035 | 35930 ft | 387 kts | 248° |
| 2026-05-06 15:03 | 38.85208 | 0.58621 | 35929 ft | 387 kts | 248° |
| 2026-05-06 15:03 | 38.83200 | 0.52210 | 35929 ft | 387 kts | 248° |
| 2026-05-06 15:04 | 38.81254 | 0.47049 | 35930 ft | 387 kts | 240° |
| 2026-05-06 15:04 | 38.78326 | 0.41242 | 35928 ft | 388 kts | 238° |
| 2026-05-06 15:05 | 38.75358 | 0.35506 | 35939 ft | 388 kts | 238° |
| 2026-05-06 15:05 | 38.72378 | 0.29745 | 35936 ft | 388 kts | 238° |
| 2026-05-06 15:06 | 38.69392 | 0.23985 | 35935 ft | 388 kts | 238° |
| 2026-05-06 15:06 | 38.66396 | 0.18218 | 35938 ft | 388 kts | 238° |
| 2026-05-06 15:07 | 38.63403 | 0.12467 | 35937 ft | 388 kts | 238° |
| 2026-05-06 15:07 | 38.60408 | 0.06722 | 35937 ft | 388 kts | 238° |
| 2026-05-06 15:08 | 38.57407 | 0.00976 | 35939 ft | 388 kts | 238° |
| 2026-05-06 15:08 | 38.54423 | -0.04727 | 35942 ft | 388 kts | 238° |
| 2026-05-06 15:09 | 38.51417 | -0.10463 | 35942 ft | 388 kts | 238° |
| 2026-05-06 15:09 | 38.48405 | -0.16199 | 35941 ft | 388 kts | 237° |
| 2026-05-06 15:10 | 38.45396 | -0.21920 | 35937 ft | 388 kts | 237° |
| 2026-05-06 15:10 | 38.42384 | -0.27637 | 35938 ft | 388 kts | 237° |
| 2026-05-06 15:11 | 38.39372 | -0.33344 | 35935 ft | 388 kts | 237° |
| 2026-05-06 15:11 | 38.36355 | -0.39049 | 35936 ft | 388 kts | 237° |
| 2026-05-06 15:12 | 38.33337 | -0.44747 | 35938 ft | 388 kts | 237° |
| 2026-05-06 15:12 | 38.30318 | -0.50437 | 35937 ft | 388 kts | 237° |
| 2026-05-06 15:13 | 38.27346 | -0.56118 | 35937 ft | 387 kts | 240° |
| 2026-05-06 15:13 | 38.24933 | -0.62231 | 35936 ft | 386 kts | 246° |
| 2026-05-06 15:14 | 38.22702 | -0.68463 | 35935 ft | 386 kts | 245° |
| 2026-05-06 15:14 | 38.20466 | -0.74658 | 35935 ft | 387 kts | 245° |
| 2026-05-06 15:15 | 38.18218 | -0.80870 | 35924 ft | 386 kts | 245° |
| 2026-05-06 15:15 | 38.15970 | -0.87068 | 35941 ft | 386 kts | 245° |
| 2026-05-06 15:16 | 38.13716 | -0.93272 | 35932 ft | 386 kts | 245° |
| 2026-05-06 15:16 | 38.11477 | -0.99424 | 35918 ft | 386 kts | 245° |
| 2026-05-06 15:17 | 38.09218 | -1.05614 | 35918 ft | 386 kts | 245° |
| 2026-05-06 15:17 | 38.06959 | -1.11794 | 35909 ft | 386 kts | 245° |
| 2026-05-06 15:18 | 38.04697 | -1.17970 | 35920 ft | 386 kts | 245° |
| 2026-05-06 15:18 | 38.02440 | -1.24120 | 35913 ft | 386 kts | 245° |
| 2026-05-06 15:19 | 38.00165 | -1.30305 | 35908 ft | 386 kts | 245° |
| 2026-05-06 15:19 | 37.97902 | -1.36445 | 35908 ft | 386 kts | 245° |
| 2026-05-06 15:20 | 37.95625 | -1.42610 | 35910 ft | 385 kts | 245° |
| 2026-05-06 15:20 | 37.93349 | -1.48760 | 35895 ft | 385 kts | 245° |
| 2026-05-06 15:21 | 37.91018 | -1.54864 | 35888 ft | 385 kts | 242° |
| 2026-05-06 15:21 | 37.88145 | -1.60528 | 35889 ft | 386 kts | 236° |
| 2026-05-06 15:22 | 37.85047 | -1.66137 | 35891 ft | 386 kts | 237° |
| 2026-05-06 15:22 | 37.81996 | -1.71686 | 35900 ft | 387 kts | 237° |
| 2026-05-06 15:23 | 37.78918 | -1.77280 | 35906 ft | 388 kts | 236° |
| 2026-05-06 15:23 | 37.75827 | -1.82884 | 35910 ft | 388 kts | 236° |
| 2026-05-06 15:24 | 37.72730 | -1.88484 | 35910 ft | 388 kts | 236° |
| 2026-05-06 15:24 | 37.69639 | -1.94065 | 35880 ft | 386 kts | 236° |
| 2026-05-06 15:25 | 37.66580 | -1.99577 | 35904 ft | 386 kts | 236° |
| 2026-05-06 15:25 | 37.63494 | -2.05131 | 35903 ft | 386 kts | 236° |
| 2026-05-06 15:26 | 37.60404 | -2.10682 | 35906 ft | 386 kts | 236° |
| 2026-05-06 15:26 | 37.57327 | -2.16200 | 35910 ft | 385 kts | 236° |
| 2026-05-06 15:27 | 37.54256 | -2.21698 | 35920 ft | 385 kts | 236° |